Time;durP1;ratioP1;P1;durP2;ratioP2;P2;SDS_P1;SDS_P2;PMS_P1;PMS_P2;Temp;Humidity;BMP_temperature;BMP_pressure;BME280_temperature;BME280_humidity;BME280_pressure;Samples;Min_cycle;Max_cycle;Signal;HPM_P1;HPM_P2
2023/03/15 00:00:48;;;;;;;2.78;0.70;;;;;;;4.15;76.54;101141.69;5085644;28;20408;-89
2023/03/15 00:03:14;;;;;;;1.98;1.00;;;;;;;4.03;77.29;101129.59;5067230;28;20028;-90
2023/03/15 00:05:44;;;;;;;1.95;1.10;;;;;;;4.08;76.85;101127.81;5082827;28;20032;-89
2023/03/15 00:08:11;;;;;;;2.38;1.15;;;;;;;3.98;77.16;101128.78;5074264;28;20024;-89
2023/03/15 00:10:39;;;;;;;1.25;0.93;;;;;;;4.00;77.16;101120.00;5089137;28;20419;-90
2023/03/15 00:13:04;;;;;;;2.17;1.42;;;;;;;4.34;76.29;101124.94;5068933;28;20020;-89
2023/03/15 00:15:30;;;;;;;3.58;1.50;;;;;;;4.14;77.17;101129.50;5090016;28;20055;-90
2023/03/15 00:17:55;;;;;;;2.78;1.80;;;;;;;3.97;76.73;101112.22;5073898;28;20115;-90
2023/03/15 00:20:20;;;;;;;2.08;1.88;;;;;;;4.04;76.84;101132.19;5069790;28;20027;-89
2023/03/15 00:22:45;;;;;;;3.60;2.03;;;;;;;4.02;76.54;101126.13;5085851;28;20507;-89
2023/03/15 00:25:11;;;;;;;2.53;1.83;;;;;;;3.99;76.97;101123.50;5071644;28;20035;-90
2023/03/15 00:27:36;;;;;;;1.83;1.65;;;;;;;4.03;77.01;101134.81;5069808;28;20444;-91
2023/03/15 00:30:02;;;;;;;4.57;2.20;;;;;;;3.95;77.47;101128.78;5084644;28;20066;-89
2023/03/15 00:32:27;;;;;;;2.63;2.03;;;;;;;4.00;77.25;101140.06;5086250;28;20024;-90
2023/03/15 00:34:53;;;;;;;3.97;2.10;;;;;;;3.95;77.58;101129.66;5073271;28;20081;-90
2023/03/15 00:37:24;;;;;;;2.00;1.75;;;;;;;4.00;77.74;101133.09;5074104;28;20066;-90
2023/03/15 00:39:50;;;;;;;1.67;1.50;;;;;;;3.87;77.57;101121.03;5089531;28;20028;-90
2023/03/15 00:42:16;;;;;;;2.03;1.30;;;;;;;4.06;78.02;101134.81;5070426;28;20540;-90
2023/03/15 00:44:44;;;;;;;2.05;1.20;;;;;;;4.08;77.73;101136.50;5092208;28;20028;-90
2023/03/15 00:47:12;;;;;;;2.38;1.50;;;;;;;4.13;78.15;101144.31;5089826;28;20455;-90
2023/03/15 00:49:38;;;;;;;3.17;1.50;;;;;;;4.11;77.82;101143.50;5089797;28;20024;-90
2023/03/15 00:52:03;;;;;;;3.17;1.80;;;;;;;3.99;78.39;101136.59;5074292;28;20118;-90
2023/03/15 00:54:32;;;;;;;1.52;1.27;;;;;;;3.95;78.77;101131.41;5087004;28;20036;-90
2023/03/15 00:56:57;;;;;;;2.08;1.65;;;;;;;3.81;79.22;101115.81;5072866;28;20048;-89
2023/03/15 00:59:23;;;;;;;2.67;1.48;;;;;;;3.87;79.36;101135.81;5091590;28;20226;-90
2023/03/15 01:01:48;;;;;;;2.00;1.30;;;;;;;3.91;79.48;101137.53;5070262;28;20046;-90
2023/03/15 01:04:13;;;;;;;6.25;1.90;;;;;;;3.69;80.41;101135.09;5075063;28;20070;-90
2023/03/15 01:06:41;;;;;;;3.33;1.58;;;;;;;3.95;80.07;101147.09;5074827;28;20368;-89
2023/03/15 01:09:07;;;;;;;2.10;1.58;;;;;;;3.73;80.61;101142.03;5091722;28;20082;-89
2023/03/15 01:11:32;;;;;;;3.70;1.50;;;;;;;3.87;80.79;101151.50;5073151;28;20039;-89
2023/03/15 01:13:58;;;;;;;2.83;1.30;;;;;;;3.88;80.46;101133.22;5092171;28;20028;-89
2023/03/15 01:16:25;;;;;;;2.90;1.40;;;;;;;4.03;80.51;101138.31;5064405;28;20031;-89
2023/03/15 01:18:51;;;;;;;2.35;1.50;;;;;;;3.95;80.12;101139.25;5087978;28;20506;-90
2023/03/15 01:21:17;;;;;;;2.00;1.30;;;;;;;4.04;80.51;101154.88;5091124;28;20020;-90
2023/03/15 01:23:42;;;;;;;2.40;1.70;;;;;;;4.04;81.28;101157.47;5074873;28;20027;-90
2023/03/15 01:26:12;;;;;;;3.55;1.63;;;;;;;4.16;80.92;101159.16;5091811;28;20506;-90
2023/03/15 01:28:37;;;;;;;2.67;1.80;;;;;;;4.17;80.21;101158.25;5090913;28;20488;-90
2023/03/15 01:31:03;;;;;;;4.25;1.65;;;;;;;4.18;80.14;101154.75;5072357;28;20039;-90
2023/03/15 01:33:28;;;;;;;7.38;2.80;;;;;;;4.27;80.26;101176.47;5071120;28;20031;-90
2023/03/15 01:36:05;;;;;;;3.92;2.72;;;;;;;4.27;80.35;101162.53;5085677;28;20382;-90
2023/03/15 01:38:32;;;;;;;7.45;3.25;;;;;;;4.19;80.00;101148.63;5071226;28;20131;-90
2023/03/15 01:40:57;;;;;;;7.07;4.13;;;;;;;4.09;80.52;101156.56;5083983;28;20026;-90
2023/03/15 01:43:26;;;;;;;9.23;5.13;;;;;;;4.33;80.36;101172.94;5088757;28;20024;-90
2023/03/15 01:46:00;;;;;;;6.60;5.05;;;;;;;4.24;80.14;101176.53;5085004;28;20031;-91
2023/03/15 01:48:38;;;;;;;8.88;5.15;;;;;;;4.31;80.45;101159.00;5069955;28;20036;-90
2023/03/15 01:51:15;;;;;;;8.73;6.50;;;;;;;4.29;79.85;101163.34;5065240;28;20177;-90
2023/03/15 01:53:44;;;;;;;10.95;7.90;;;;;;;4.27;80.68;101175.59;5072291;28;20463;-90
2023/03/15 01:56:10;;;;;;;12.40;7.28;;;;;;;4.23;80.10;101173.91;5087800;28;20052;-90
2023/03/15 01:58:37;;;;;;;12.13;8.45;;;;;;;4.19;80.57;101185.25;5072481;28;20035;-90
2023/03/15 02:01:02;;;;;;;11.98;7.97;;;;;;;4.19;81.31;101185.25;5062512;28;20020;-90
2023/03/15 02:03:35;;;;;;;14.07;8.35;;;;;;;4.34;80.56;101185.16;5070616;28;20028;-90
2023/03/15 02:06:06;;;;;;;11.75;8.52;;;;;;;4.33;80.42;101194.72;5086923;28;20024;-90
2023/03/15 02:08:37;;;;;;;12.48;8.10;;;;;;;4.16;80.58;101174.84;5090376;28;20043;-90
2023/03/15 02:11:04;;;;;;;12.68;8.40;;;;;;;4.24;80.31;101179.13;5073496;28;20039;-89
2023/03/15 02:13:31;;;;;;;12.68;9.30;;;;;;;4.30;80.19;101193.91;5090301;28;20099;-90
2023/03/15 02:15:57;;;;;;;14.82;10.25;;;;;;;4.25;80.54;101195.69;5068229;28;20491;-91
2023/03/15 02:18:23;;;;;;;14.45;8.75;;;;;;;4.34;80.58;101216.56;5069864;28;20027;-90
2023/03/15 02:21:17;;;;;;;12.55;9.18;;;;;;;4.38;80.02;101210.38;5073669;28;20395;-90
2023/03/15 02:23:46;;;;;;;7.95;4.97;;;;;;;4.31;79.45;101216.56;5090407;28;20032;-90
2023/03/15 02:26:23;;;;;;;5.72;4.03;;;;;;;4.39;79.20;101221.75;5088465;28;20024;-90
2023/03/15 02:28:50;;;;;;;5.07;3.63;;;;;;;4.35;79.22;101228.75;5069468;28;20063;-90
2023/03/15 02:31:16;;;;;;;6.40;4.18;;;;;;;4.25;78.79;101207.03;5090775;28;20516;-90
2023/03/15 02:33:48;;;;;;;8.13;4.90;;;;;;;4.30;79.18;101218.34;5072619;28;20031;-90
2023/03/15 02:36:24;;;;;;;12.00;6.95;;;;;;;4.34;78.96;101224.41;5069354;28;20020;-90
2023/03/15 02:38:51;;;;;;;13.20;6.10;;;;;;;4.28;79.36;101219.22;5071332;28;20045;-90
2023/03/15 02:41:30;;;;;;;9.93;6.97;;;;;;;4.32;79.44;101218.31;5072697;28;20020;-89
2023/03/15 02:44:02;;;;;;;13.68;7.93;;;;;;;4.30;79.42;101209.63;5073424;28;20040;-90
2023/03/15 02:46:28;;;;;;;11.05;8.23;;;;;;;4.27;79.19;101217.47;5084640;28;20028;-90
2023/03/15 02:48:53;;;;;;;13.18;8.55;;;;;;;4.27;79.72;101220.09;5088356;28;20031;-90
2023/03/15 02:51:22;;;;;;;13.82;8.65;;;;;;;4.39;79.83;101229.63;5082462;28;20058;-90
2023/03/15 02:53:47;;;;;;;14.68;8.70;;;;;;;4.19;79.70;101216.66;5070295;28;20039;-90
2023/03/15 02:56:13;;;;;;;13.18;8.95;;;;;;;4.21;79.83;101218.41;5081553;28;20403;-90
2023/03/15 02:58:39;;;;;;;13.80;9.65;;;;;;;4.41;79.05;101231.31;5081437;28;20028;-90
2023/03/15 03:01:04;;;;;;;17.67;10.80;;;;;;;4.18;79.67;101217.56;5084037;28;20024;-90
2023/03/15 03:03:30;;;;;;;18.48;10.60;;;;;;;4.08;79.83;101220.25;5071554;28;20028;-90
2023/03/15 03:05:55;;;;;;;15.98;10.85;;;;;;;4.12;80.17;101236.78;5089103;28;20077;-90
2023/03/15 03:08:20;;;;;;;16.70;11.15;;;;;;;4.02;80.74;101219.44;5069480;28;20475;-91
2023/03/15 03:10:45;;;;;;;17.38;11.32;;;;;;;4.23;80.51;101255.03;5070209;28;20028;-91
2023/03/15 03:13:11;;;;;;;16.17;11.30;;;;;;;4.14;80.95;101242.00;5089452;28;20528;-90
2023/03/15 03:15:36;;;;;;;14.50;10.23;;;;;;;4.11;80.83;101242.03;5090481;28;20031;-90
2023/03/15 03:18:02;;;;;;;13.85;9.63;;;;;;;4.18;80.44;101257.66;5071133;28;20027;-91
2023/03/15 03:20:27;;;;;;;13.85;9.27;;;;;;;4.13;80.30;101262.06;5072310;28;20356;-91
2023/03/15 03:22:54;;;;;;;14.60;8.00;;;;;;;4.09;80.00;101265.59;5089043;28;20352;-91
2023/03/15 03:25:20;;;;;;;13.40;8.55;;;;;;;4.03;80.35;101273.47;5086827;28;20092;-91
2023/03/15 03:27:45;;;;;;;12.88;7.80;;;;;;;4.03;79.91;101283.94;5071807;28;20542;-90
2023/03/15 03:30:12;;;;;;;11.25;7.88;;;;;;;3.98;79.91;101297.06;5089937;28;20031;-90
2023/03/15 03:32:40;;;;;;;14.70;7.82;;;;;;;3.88;80.01;101292.75;5069865;28;20028;-90
2023/03/15 03:35:06;;;;;;;11.45;7.93;;;;;;;3.78;80.12;101291.06;5064686;28;20531;-91
2023/03/15 03:37:35;;;;;;;12.27;8.30;;;;;;;3.78;79.39;101278.00;5071080;28;20136;-90
2023/03/15 03:40:00;;;;;;;13.45;8.10;;;;;;;3.52;79.83;101271.13;5070340;28;20027;-90
2023/03/15 03:42:25;;;;;;;14.02;7.97;;;;;;;3.53;79.85;101291.16;5093556;28;20028;-90
2023/03/15 03:44:52;;;;;;;11.63;7.28;;;;;;;3.49;80.15;101297.28;5075215;28;20171;-90
2023/03/15 03:47:18;;;;;;;12.35;8.23;;;;;;;3.39;79.91;101294.72;5076571;28;20068;-91
2023/03/15 03:49:43;;;;;;;12.13;7.47;;;;;;;3.30;80.42;101322.59;5092514;28;20111;-90
2023/03/15 03:52:08;;;;;;;11.52;7.85;;;;;;;3.43;80.13;101314.72;5094780;28;20086;-90
2023/03/15 03:54:34;;;;;;;11.30;7.78;;;;;;;3.24;79.90;101288.66;5092812;28;20024;-91
2023/03/15 03:56:59;;;;;;;11.68;7.78;;;;;;;3.22;80.60;101315.69;5091467;28;20038;-90
2023/03/15 03:59:24;;;;;;;12.13;7.88;;;;;;;3.18;80.05;101316.56;5094051;28;20028;-90
2023/03/15 04:01:50;;;;;;;11.38;8.07;;;;;;;3.15;79.72;101327.88;5071481;28;20487;-90
2023/03/15 04:04:15;;;;;;;12.07;7.95;;;;;;;3.02;80.38;101305.25;5092251;28;20043;-91
2023/03/15 04:06:44;;;;;;;9.70;6.50;;;;;;;3.13;80.74;101336.59;5075016;28;20548;-90
2023/03/15 04:09:14;;;;;;;10.35;6.80;;;;;;;2.94;80.77;101334.00;5069983;28;20035;-91
2023/03/15 04:11:44;;;;;;;10.00;6.80;;;;;;;2.90;81.30;101345.31;5091026;28;20031;-91
2023/03/15 04:14:10;;;;;;;10.85;7.38;;;;;;;2.78;81.43;101340.97;5094143;28;20028;-91
2023/03/15 04:16:36;;;;;;;11.82;7.45;;;;;;;2.73;81.63;101349.66;5064243;28;20024;-91
2023/03/15 04:19:02;;;;;;;13.43;8.18;;;;;;;2.71;81.93;101359.25;5074884;28;20016;-91
2023/03/15 04:21:30;;;;;;;14.05;8.35;;;;;;;2.63;82.00;101354.00;5071191;28;20486;-91
2023/03/15 04:23:58;;;;;;;12.63;7.50;;;;;;;2.55;81.76;101354.00;5069482;28;20032;-91
2023/03/15 04:26:25;;;;;;;12.30;8.00;;;;;;;2.58;82.12;101367.94;5075317;28;20471;-92
2023/03/15 04:28:52;;;;;;;13.02;7.65;;;;;;;2.49;81.94;101364.44;5075571;28;20028;-91
2023/03/15 04:31:18;;;;;;;13.20;8.23;;;;;;;2.48;81.97;101367.94;5094097;28;20016;-91
2023/03/15 04:33:43;;;;;;;13.95;8.48;;;;;;;2.48;81.89;101382.72;5073694;28;20032;-90
2023/03/15 04:36:08;;;;;;;12.50;7.68;;;;;;;2.62;81.47;101378.38;5084693;28;20627;-91
2023/03/15 04:38:34;;;;;;;14.45;8.80;;;;;;;2.65;81.40;101380.09;5073601;28;20141;-90
2023/03/15 04:40:59;;;;;;;13.65;8.35;;;;;;;2.61;81.39;101381.88;5075827;28;20019;-91
2023/03/15 04:43:25;;;;;;;13.68;8.75;;;;;;;2.59;81.36;101386.19;5074945;28;20035;-90
2023/03/15 04:45:50;;;;;;;13.85;8.60;;;;;;;2.57;81.32;101385.34;5074366;28;20031;-91
2023/03/15 04:48:16;;;;;;;14.50;9.13;;;;;;;2.48;81.28;101372.28;5072784;28;20030;-91
2023/03/15 04:50:41;;;;;;;14.10;7.82;;;;;;;2.36;81.99;101387.91;5075613;28;20062;-91
2023/03/15 04:53:06;;;;;;;14.75;8.32;;;;;;;2.29;82.37;101387.91;5073695;28;20028;-91
2023/03/15 04:55:31;;;;;;;14.05;7.93;;;;;;;2.39;82.15;101385.31;5092564;28;20487;-90
2023/03/15 04:57:57;;;;;;;14.52;8.07;;;;;;;2.36;82.72;101406.16;5073560;28;20024;-91
2023/03/15 05:00:22;;;;;;;13.77;7.75;;;;;;;2.43;81.85;101400.97;5074241;28;20659;-91
2023/03/15 05:02:53;;;;;;;16.33;8.63;;;;;;;2.41;81.92;101404.44;5073717;28;20130;-91
2023/03/15 05:05:22;;;;;;;15.32;8.52;;;;;;;2.42;81.81;101414.00;5073525;28;20028;-91
2023/03/15 05:07:48;;;;;;;12.65;7.82;;;;;;;2.40;81.75;101418.34;5091972;28;20028;-91
2023/03/15 05:10:14;;;;;;;13.45;7.75;;;;;;;2.42;81.96;101420.09;5067910;28;20368;-91
2023/03/15 05:12:40;;;;;;;16.02;8.93;;;;;;;2.42;81.93;101421.81;5072037;28;20046;-91
2023/03/15 05:15:05;;;;;;;13.85;7.70;;;;;;;2.38;82.03;101423.59;5072022;28;20028;-91
2023/03/15 05:17:32;;;;;;;13.90;8.35;;;;;;;2.34;81.93;101420.97;5091057;28;20028;-91
2023/03/15 05:20:00;;;;;;;14.50;7.72;;;;;;;2.38;81.70;101417.47;5089748;28;20452;-91
2023/03/15 05:22:26;;;;;;;13.18;7.78;;;;;;;2.34;82.05;101428.78;5071057;28;20483;-91
2023/03/15 05:24:52;;;;;;;14.40;7.63;;;;;;;2.42;81.67;101429.66;5066364;28;20032;-91
2023/03/15 05:27:18;;;;;;;15.55;7.03;;;;;;;2.40;81.65;101432.28;5073929;28;20479;-91
2023/03/15 05:29:44;;;;;;;13.00;7.78;;;;;;;2.38;81.38;101434.03;5089641;28;20107;-91
2023/03/15 05:32:09;;;;;;;13.05;7.22;;;;;;;2.29;81.03;101428.78;5071420;28;20024;-91
2023/03/15 05:34:35;;;;;;;13.25;7.85;;;;;;;2.21;80.81;101428.72;5072175;28;20127;-91
2023/03/15 05:37:00;;;;;;;11.75;7.65;;;;;;;1.99;82.11;101435.59;5072191;28;20047;-91
2023/03/15 05:39:25;;;;;;;11.85;7.32;;;;;;;1.94;81.79;101434.69;5073544;28;20083;-91
2023/03/15 05:41:51;;;;;;;14.25;7.47;;;;;;;1.86;81.98;101433.78;5091746;28;20475;-90
2023/03/15 05:44:16;;;;;;;13.75;7.70;;;;;;;1.87;82.26;101458.16;5070431;28;20055;-91
2023/03/15 05:46:42;;;;;;;13.95;7.47;;;;;;;1.79;82.24;101458.09;5067861;28;20031;-91
2023/03/15 05:49:07;;;;;;;12.50;7.57;;;;;;;1.76;82.01;101448.50;5068236;28;20036;-92
2023/03/15 05:51:33;;;;;;;14.50;7.22;;;;;;;1.98;81.93;101465.16;5073350;28;20483;-91
2023/03/15 05:53:58;;;;;;;12.13;6.80;;;;;;;1.91;80.92;101455.56;5091501;28;20103;-92
2023/03/15 05:56:24;;;;;;;13.95;7.57;;;;;;;1.97;81.34;101457.31;5071472;28;20518;-92
2023/03/15 05:58:49;;;;;;;15.02;8.05;;;;;;;1.85;81.73;101455.50;5088837;28;20034;-91
2023/03/15 06:01:15;;;;;;;15.77;7.55;;;;;;;1.89;82.04;101459.88;5087309;28;20391;-92
2023/03/15 06:03:40;;;;;;;14.95;7.53;;;;;;;1.76;82.53;101458.94;5071022;28;20024;-91
2023/03/15 06:06:05;;;;;;;13.32;7.43;;;;;;;1.90;82.52;101471.19;5069840;28;20039;-91
2023/03/15 06:08:31;;;;;;;12.02;7.75;;;;;;;2.10;82.14;101486.91;5066884;28;20084;-91
2023/03/15 06:10:56;;;;;;;11.95;7.10;;;;;;;2.05;82.15;101484.28;5069515;28;20123;-91
2023/03/15 06:13:21;;;;;;;12.88;7.93;;;;;;;1.94;82.38;101492.06;5069917;28;20024;-91
2023/03/15 06:15:47;;;;;;;15.02;7.88;;;;;;;1.94;82.81;101499.88;5088651;28;20255;-91
2023/03/15 06:18:12;;;;;;;15.25;8.73;;;;;;;2.08;83.02;101499.09;5087804;28;20028;-92
2023/03/15 06:20:39;;;;;;;14.68;8.05;;;;;;;2.01;82.53;101487.78;5073448;28;20019;-92
2023/03/15 06:23:04;;;;;;;17.23;8.52;;;;;;;2.15;82.66;101501.75;5088662;28;20031;-92
2023/03/15 06:25:29;;;;;;;13.55;8.38;;;;;;;2.17;82.37;101504.34;5087101;28;20043;-92
2023/03/15 06:27:55;;;;;;;16.40;8.95;;;;;;;2.08;82.88;101506.91;5070762;28;20495;-92
2023/03/15 06:30:20;;;;;;;20.63;8.57;;;;;;;2.17;82.40;101496.53;5067519;28;20036;-92
2023/03/15 06:32:45;;;;;;;15.73;8.80;;;;;;;2.34;82.14;101517.50;5091181;28;20028;-91
2023/03/15 06:35:11;;;;;;;16.63;8.30;;;;;;;2.38;82.19;101533.16;5068575;28;20035;-88
2023/03/15 06:37:36;;;;;;;13.27;8.10;;;;;;;2.43;82.04;101530.59;5068366;28;20054;-88
2023/03/15 06:40:10;;;;;;;13.23;7.90;;;;;;;2.63;82.15;101547.19;5069016;28;20467;-91
2023/03/15 06:42:36;;;;;;;16.05;8.25;;;;;;;2.50;82.50;101543.66;5072294;28;20506;-90
2023/03/15 06:45:02;;;;;;;16.30;8.18;;;;;;;2.77;81.56;101549.84;5088242;28;20463;-91
2023/03/15 06:47:28;;;;;;;15.57;8.43;;;;;;;2.70;82.09;101556.75;5068432;28;20715;-91
2023/03/15 06:49:53;;;;;;;14.13;8.27;;;;;;;2.71;82.23;101561.16;5070281;28;20030;-91
2023/03/15 06:52:18;;;;;;;17.83;8.70;;;;;;;2.91;82.19;101560.34;5072287;28;20042;-92
2023/03/15 06:54:44;;;;;;;16.08;8.10;;;;;;;2.92;82.23;101559.47;5087375;28;20395;-92
2023/03/15 06:57:09;;;;;;;14.23;8.38;;;;;;;3.15;81.75;101575.19;5086114;28;20157;-92
2023/03/15 06:59:35;;;;;;;17.27;9.27;;;;;;;3.11;81.97;101571.69;5089477;28;20029;-91
2023/03/15 07:02:00;;;;;;;14.60;8.73;;;;;;;3.03;82.79;101549.91;5066648;28;20113;-91
2023/03/15 07:04:25;;;;;;;14.77;8.80;;;;;;;3.38;81.20;101563.03;5086826;28;20020;-92
2023/03/15 07:06:50;;;;;;;17.73;9.40;;;;;;;3.51;80.73;101580.47;5085669;28;20035;-92
2023/03/15 07:09:16;;;;;;;17.52;9.85;;;;;;;3.58;80.47;101589.19;5069324;28;20035;-92
2023/03/15 07:11:41;;;;;;;14.38;8.43;;;;;;;3.43;80.90;101591.78;5072940;28;20035;-92
2023/03/15 07:14:07;;;;;;;15.27;8.27;;;;;;;3.48;80.79;101598.75;5073764;28;20040;-91
2023/03/15 07:16:32;;;;;;;14.43;7.63;;;;;;;3.25;81.26;101583.03;5086430;28;20055;-91
2023/03/15 07:18:58;;;;;;;17.88;9.63;;;;;;;3.39;81.65;101613.56;5084822;28;20110;-91
2023/03/15 07:21:24;;;;;;;16.05;8.30;;;;;;;3.67;81.00;101609.22;5071373;28;20502;-90
2023/03/15 07:23:50;;;;;;;17.33;8.95;;;;;;;3.87;80.55;101620.59;5070861;28;20467;-90
2023/03/15 07:26:15;;;;;;;18.95;9.15;;;;;;;4.01;80.13;101616.22;5072108;28;20024;-90
2023/03/15 07:28:42;;;;;;;15.57;8.73;;;;;;;4.19;79.80;101620.53;5072770;28;20380;-90
2023/03/15 07:31:08;;;;;;;14.88;9.48;;;;;;;4.35;79.30;101622.28;5069700;28;20024;-90
2023/03/15 07:33:35;;;;;;;14.85;8.55;;;;;;;4.31;78.94;101617.03;5070764;28;20047;-89
2023/03/15 07:36:03;;;;;;;14.75;8.40;;;;;;;4.48;78.94;101630.97;5085486;28;20047;-90
2023/03/15 07:38:30;;;;;;;15.02;8.77;;;;;;;4.64;78.82;101639.66;5066680;28;20012;-89
2023/03/15 07:40:56;;;;;;;14.48;7.68;;;;;;;4.77;78.37;101643.13;5072687;28;20124;-90
2023/03/15 07:43:22;;;;;;;13.93;8.80;;;;;;;4.89;78.07;101644.78;5075310;28;20055;-90
2023/03/15 07:45:47;;;;;;;14.13;8.07;;;;;;;4.90;77.89;101647.44;5078366;28;20123;-90
2023/03/15 07:48:13;;;;;;;12.07;7.65;;;;;;;4.92;77.10;101643.03;5092239;28;20544;-90
2023/03/15 07:50:38;;;;;;;13.95;8.30;;;;;;;4.85;76.60;101646.59;5077131;28;20024;-90
2023/03/15 07:53:04;;;;;;;16.13;7.85;;;;;;;4.76;77.19;101650.09;5070475;28;20024;-90
2023/03/15 07:55:34;;;;;;;11.65;7.85;;;;;;;4.70;77.35;101654.47;5071551;28;20547;-90
2023/03/15 07:57:59;;;;;;;17.27;9.15;;;;;;;4.79;77.53;101663.16;5090659;28;20040;-90
2023/03/15 08:00:25;;;;;;;13.30;8.60;;;;;;;4.87;77.70;101660.53;5071839;28;20020;-90
2023/03/15 08:02:50;;;;;;;15.77;8.02;;;;;;;4.87;77.80;101671.00;5071916;28;20039;-89
2023/03/15 08:05:17;;;;;;;10.73;7.25;;;;;;;4.93;77.67;101680.59;5085791;28;20020;-90
2023/03/15 08:07:44;;;;;;;11.88;7.75;;;;;;;5.10;77.69;101677.03;5073746;28;20043;-90
2023/03/15 08:10:10;;;;;;;12.15;7.43;;;;;;;5.35;77.20;101683.03;5071112;28;20024;-90
2023/03/15 08:12:35;;;;;;;9.93;6.45;;;;;;;5.56;76.13;101689.91;5081319;28;20472;-90
2023/03/15 08:15:00;;;;;;;12.02;6.65;;;;;;;5.81;75.32;101688.00;5074154;28;20456;-90
2023/03/15 08:17:26;;;;;;;11.55;5.75;;;;;;;6.10;74.87;101700.06;5067509;28;20504;-91
2023/03/15 08:19:51;;;;;;;9.00;6.13;;;;;;;6.29;75.13;101692.91;5088990;28;20165;-89
2023/03/15 08:22:16;;;;;;;9.27;5.60;;;;;;;6.53;72.72;101710.22;5102898;28;20052;-90
2023/03/15 08:24:42;;;;;;;7.53;4.90;;;;;;;6.83;73.63;101704.63;5091308;28;20491;-90
2023/03/15 08:27:07;;;;;;;7.03;4.93;;;;;;;7.07;71.39;101702.63;5066143;28;20052;-90
2023/03/15 08:29:32;;;;;;;9.88;5.50;;;;;;;7.36;70.52;101718.91;5076700;28;20028;-90
2023/03/15 08:32:00;;;;;;;6.35;3.85;;;;;;;7.51;69.71;101720.50;5095450;28;20451;-90
2023/03/15 08:34:25;;;;;;;7.75;4.30;;;;;;;7.71;69.12;101720.22;5074678;28;20054;-90
2023/03/15 08:36:51;;;;;;;5.13;3.33;;;;;;;8.03;67.25;101730.25;5091220;28;20467;-90
2023/03/15 08:39:16;;;;;;;7.40;3.15;;;;;;;8.24;65.50;101722.91;5077021;28;20024;-90
2023/03/15 08:41:42;;;;;;;4.97;3.55;;;;;;;8.81;65.82;101725.44;5095449;28;20032;-90
2023/03/15 08:44:08;;;;;;;3.17;2.50;;;;;;;9.08;65.30;101740.75;5077070;28;20020;-89
2023/03/15 08:46:34;;;;;;;10.48;3.28;;;;;;;9.55;62.17;101741.53;5093896;28;20035;-88
2023/03/15 08:49:00;;;;;;;5.45;2.72;;;;;;;9.78;61.76;101727.84;5096947;28;20036;-90
2023/03/15 08:51:26;;;;;;;5.28;2.83;;;;;;;9.97;60.54;101744.13;5090239;28;20030;-90
2023/03/15 08:53:52;;;;;;;5.55;2.90;;;;;;;10.23;59.55;101730.31;5072523;28;20118;-90
2023/03/15 08:56:18;;;;;;;7.30;2.60;;;;;;;10.42;57.19;101743.97;5066913;28;20495;-90
2023/03/15 08:58:44;;;;;;;3.90;2.38;;;;;;;10.81;57.65;101743.84;5090147;28;20069;-91
2023/03/15 09:01:14;;;;;;;4.15;2.40;;;;;;;11.35;56.18;101749.38;5095528;28;20024;-89
2023/03/15 09:03:41;;;;;;;4.45;2.17;;;;;;;11.82;53.95;101735.66;5091712;28;20028;-90
2023/03/15 09:06:08;;;;;;;5.38;2.78;;;;;;;12.38;53.34;101746.25;5074422;28;20035;-90
2023/03/15 09:08:33;;;;;;;6.18;2.70;;;;;;;12.86;51.80;101746.34;5074127;28;20024;-90
2023/03/15 09:11:00;;;;;;;7.95;2.40;;;;;;;12.97;50.21;101748.63;5093038;28;20502;-90
2023/03/15 09:13:26;;;;;;;4.65;2.65;;;;;;;13.31;50.55;101753.63;5074871;28;20031;-90
2023/03/15 09:15:52;;;;;;;6.80;2.80;;;;;;;13.93;47.33;101739.69;5092102;28;20106;-90
2023/03/15 09:18:18;;;;;;;8.63;2.50;;;;;;;13.90;46.59;101744.31;5063191;28;20383;-90
2023/03/15 09:20:47;;;;;;;5.07;2.40;;;;;;;14.42;46.36;101747.50;5090411;28;20452;-90
2023/03/15 09:23:13;;;;;;;5.18;2.63;;;;;;;15.26;44.40;101747.38;5091015;28;20523;-90
2023/03/15 09:25:38;;;;;;;6.35;1.92;;;;;;;15.39;40.69;101738.81;5074347;28;20028;-91
2023/03/15 09:28:06;;;;;;;6.85;2.00;;;;;;;15.55;41.50;101743.38;5084077;28;20391;-90
2023/03/15 09:30:32;;;;;;;5.63;2.05;;;;;;;16.02;39.48;101728.75;5091945;28;20032;-90
2023/03/15 09:32:58;;;;;;;5.75;2.38;;;;;;;16.75;40.19;101754.47;5091698;28;20032;-91
2023/03/15 09:35:23;;;;;;;3.67;2.33;;;;;;;17.02;38.71;101746.84;5092774;28;20523;-91
2023/03/15 09:37:49;;;;;;;4.60;1.70;;;;;;;17.48;37.68;101744.34;5090749;28;20031;-90
2023/03/15 09:40:24;;;;;;;6.63;2.30;;;;;;;18.53;37.24;101747.34;5074120;28;20057;-91
2023/03/15 09:42:57;;;;;;;6.00;1.88;;;;;;;19.25;35.70;101741.19;5091111;28;20024;-90
2023/03/15 09:45:57;;;;;;;5.32;1.60;;;;;;;19.99;33.88;101749.94;5091844;28;20035;-91
2023/03/15 09:48:39;;;;;;;3.28;2.00;;;;;;;20.04;34.94;101754.06;5086956;28;20024;-90
2023/03/15 09:51:12;;;;;;;10.52;2.67;;;;;;;19.72;33.44;101744.53;5074674;28;20085;-90
2023/03/15 09:53:59;;;;;;;4.53;2.00;;;;;;;20.41;34.54;101753.44;5094375;28;20043;-90
2023/03/15 09:56:32;;;;;;;6.88;1.90;;;;;;;20.39;32.21;101758.94;5090384;28;20037;-90
2023/03/15 09:59:00;;;;;;;5.13;1.80;;;;;;;19.41;29.59;101754.53;5074003;28;20115;-91
2023/03/15 10:01:36;;;;;;;4.88;1.75;;;;;;;20.16;31.94;101744.34;5087371;28;20668;-91
2023/03/15 10:04:17;;;;;;;6.47;2.10;;;;;;;21.22;32.66;101754.16;5089772;28;20088;-90
2023/03/15 10:06:51;;;;;;;3.77;1.80;;;;;;;20.53;31.25;101755.34;5080469;28;20028;-90
2023/03/15 10:09:21;;;;;;;8.25;1.73;;;;;;;19.23;31.88;101753.84;5071324;28;20294;-91
2023/03/15 10:11:57;;;;;;;7.88;1.95;;;;;;;17.08;35.79;101761.69;5070813;28;20114;-90
2023/03/15 10:14:35;;;;;;;4.32;1.90;;;;;;;17.71;35.54;101759.13;5070408;28;20066;-91
2023/03/15 10:17:12;;;;;;;3.30;1.92;;;;;;;16.03;35.94;101755.34;5090279;28;20024;-90
2023/03/15 10:19:57;;;;;;;3.25;1.67;;;;;;;13.83;37.58;101767.59;5091925;28;20028;-91
2023/03/15 10:22:37;;;;;;;6.88;1.70;;;;;;;12.33;46.55;101772.03;5091699;28;20546;-90
2023/03/15 10:25:16;;;;;;;6.38;2.03;;;;;;;11.91;45.29;101773.34;5087789;28;20123;-91
2023/03/15 10:27:48;;;;;;;4.28;2.00;;;;;;;14.62;44.43;101779.47;5088300;28;20483;-87
2023/03/15 10:30:27;;;;;;;5.13;1.70;;;;;;;17.65;35.95;101774.66;5084252;28;20056;-88
2023/03/15 10:33:07;;;;;;;7.68;2.10;;;;;;;18.87;31.76;101762.31;5060301;28;20391;-87
2023/03/15 10:35:32;;;;;;;3.90;1.67;;;;;;;20.70;30.00;101763.09;5089246;28;20040;-87
2023/03/15 10:38:01;;;;;;;5.53;1.55;;;;;;;22.25;28.23;101765.59;5071745;28;20050;-87
2023/03/15 10:40:56;;;;;;;5.38;1.90;;;;;;;22.63;29.35;101766.25;5087356;28;20024;-87
2023/03/15 10:43:30;;;;;;;4.72;1.38;;;;;;;23.41;25.42;101773.69;5073348;28;20039;-87
2023/03/15 10:46:31;;;;;;;6.90;1.58;;;;;;;24.28;24.29;101776.53;5085693;28;20487;-87
2023/03/15 10:49:11;;;;;;;5.72;1.75;;;;;;;23.39;27.08;101772.06;5006766;28;20470;-86
2023/03/15 10:51:42;;;;;;;6.95;2.35;;;;;;;22.32;24.84;101778.47;5079003;28;20042;-87
2023/03/15 10:54:12;;;;;;;3.40;1.50;;;;;;;23.31;25.45;101779.91;5082132;28;20032;-86
2023/03/15 10:56:51;;;;;;;5.57;1.80;;;;;;;24.83;25.62;101790.81;5086271;28;20063;-85
2023/03/15 10:59:28;;;;;;;7.00;2.00;;;;;;;24.54;23.86;101782.50;5089443;28;20020;-87
2023/03/15 11:02:06;;;;;;;6.55;1.58;;;;;;;22.25;25.52;101798.78;5087509;28;20086;-91
2023/03/15 11:04:32;;;;;;;3.65;1.60;;;;;;;21.10;25.61;101793.50;5073888;28;20028;-92
2023/03/15 11:06:57;;;;;;;3.67;1.25;;;;;;;21.37;26.49;101808.72;5090849;28;20085;-93
2023/03/15 11:09:25;;;;;;;4.53;1.60;;;;;;;21.03;25.08;101808.34;5090372;28;20023;-92
2023/03/15 11:11:54;;;;;;;6.70;1.67;;;;;;;19.68;26.52;101799.34;5073683;28;20077;-93
2023/03/15 11:14:20;;;;;;;4.03;1.23;;;;;;;19.88;30.68;101797.16;5076212;28;20056;-90
2023/03/15 11:16:54;;;;;;;5.18;1.50;;;;;;;19.08;26.82;101806.59;5070910;28;20516;-91
2023/03/15 11:19:25;;;;;;;2.40;1.20;;;;;;;19.21;27.79;101798.66;5072119;28;20536;-89
2023/03/15 11:21:51;;;;;;;6.47;1.35;;;;;;;20.09;28.10;101794.88;5090935;28;20028;-89
2023/03/15 11:24:36;;;;;;;3.10;1.17;;;;;;;20.95;27.84;101817.91;5091564;28;20545;-88
2023/03/15 11:27:08;;;;;;;3.45;1.17;;;;;;;20.95;24.17;101812.53;5087507;28;20116;-91
2023/03/15 11:29:36;;;;;;;7.78;1.30;;;;;;;20.22;24.38;101821.81;5068579;28;20043;-92